createdAt,value
2019-03-01T00:00:58.404Z,100716.62
2019-03-01T00:03:27.421Z,100710.45
2019-03-01T00:06:22.615Z,100717.38
2019-03-01T00:09:26.721Z,100715.14
2019-03-01T00:12:24.690Z,100709.56
2019-03-01T00:15:24.367Z,100698.75
2019-03-01T00:18:10.249Z,100693.34
2019-03-01T00:20:46.845Z,100695.68
2019-03-01T00:23:49.872Z,100688.52
2019-03-01T00:26:40.447Z,100684.06
2019-03-01T00:29:26.045Z,100684.52
2019-03-01T00:32:15.277Z,100681.60
2019-03-01T00:34:55.692Z,100675.97
2019-03-01T00:37:52.460Z,100672.72
2019-03-01T00:40:41.677Z,100671.14
2019-03-01T00:43:15.796Z,100667.35
2019-03-01T00:45:44.073Z,100672.08
2019-03-01T00:48:12.354Z,100679.89
2019-03-01T00:50:40.638Z,100679.77
2019-03-01T00:53:08.952Z,100679.64
2019-03-01T00:55:37.250Z,100679.06
2019-03-01T00:58:05.547Z,100676.11
2019-03-01T01:00:38.071Z,100674.81
2019-03-01T01:03:06.362Z,100679.41
2019-03-01T01:05:34.643Z,100680.94
2019-03-01T01:08:02.917Z,100674.91
2019-03-01T01:10:31.194Z,100669.87
2019-03-01T01:12:59.482Z,100671.56
2019-03-01T01:15:27.757Z,100670.84
2019-03-01T01:17:56.069Z,100670.84
2019-03-01T01:20:24.351Z,100677.72
2019-03-01T01:22:52.631Z,100674.72
2019-03-01T01:25:20.930Z,100660.57
2019-03-01T01:27:49.229Z,100654.23
2019-03-01T01:30:17.516Z,100654.84
2019-03-01T01:32:45.798Z,100648.38
2019-03-01T01:35:14.106Z,100642.29
2019-03-01T01:37:42.382Z,100643.68
2019-03-01T01:40:11.129Z,100643.19
2019-03-01T01:42:39.408Z,100637.77
2019-03-01T01:45:10.141Z,100632.73
2019-03-01T01:47:38.408Z,100628.39
2019-03-01T01:50:08.841Z,100624.11
2019-03-01T01:52:37.118Z,100630.64
2019-03-01T01:55:06.371Z,100625.95
2019-03-01T01:57:34.896Z,100612.85
2019-03-01T02:00:03.955Z,100616.59
2019-03-01T02:02:32.237Z,100627.15
2019-03-01T02:05:00.538Z,100620.37
2019-03-01T02:07:28.818Z,100623.50
2019-03-01T02:09:57.089Z,100623.96
2019-03-01T02:12:25.415Z,100623.39
2019-03-01T02:14:53.697Z,100626.60
2019-03-01T02:17:21.985Z,100619.06
2019-03-01T02:19:50.275Z,100616.42
2019-03-01T02:22:18.543Z,100602.19
2019-03-01T02:24:46.838Z,100601.60
2019-03-01T02:27:24.150Z,100595.17
2019-03-01T02:29:52.499Z,100592.19
2019-03-01T02:32:32.804Z,100589.81
2019-03-01T02:35:01.108Z,100579.05
2019-03-01T02:37:29.410Z,100575.22
2019-03-01T02:39:57.707Z,100572.98
2019-03-01T02:42:25.986Z,100578.44
2019-03-01T02:44:54.261Z,100576.15
2019-03-01T02:47:22.535Z,100575.41
2019-03-01T02:49:50.810Z,100566.88
2019-03-01T02:52:19.106Z,100566.05
2019-03-01T02:54:47.381Z,100562.23
2019-03-01T02:57:15.676Z,100568.20
2019-03-01T02:59:43.955Z,100570.90
2019-03-01T03:02:12.239Z,100575.98
2019-03-01T03:04:40.542Z,100571.65
2019-03-01T03:07:10.473Z,100572.94
2019-03-01T03:09:38.759Z,100579.02
2019-03-01T03:12:07.082Z,100576.09
2019-03-01T03:14:35.338Z,100569.02
2019-03-01T03:17:03.627Z,100569.24
2019-03-01T03:19:31.909Z,100570.22
2019-03-01T03:22:00.177Z,100573.86
2019-03-01T03:24:28.468Z,100574.41
2019-03-01T03:26:56.742Z,100574.33
2019-03-01T03:29:25.031Z,100570.89
2019-03-01T03:31:53.323Z,100571.73
2019-03-01T03:34:21.611Z,100574.99
2019-03-01T03:36:49.895Z,100568.63
2019-03-01T03:39:18.169Z,100561.56
2019-03-01T03:41:46.449Z,100555.63
2019-03-01T03:44:14.737Z,100563.90
2019-03-01T03:46:43.019Z,100563.25
2019-03-01T03:49:11.291Z,100560.72
2019-03-01T03:51:39.574Z,100567.23
2019-03-01T03:54:07.870Z,100564.11
2019-03-01T03:56:36.169Z,100560.42
2019-03-01T03:59:04.450Z,100554.23
2019-03-01T04:01:32.760Z,100542.25
2019-03-01T04:04:01.061Z,100542.25
2019-03-01T04:06:29.364Z,100545.34
2019-03-01T04:08:57.672Z,100542.95
2019-03-01T04:11:25.965Z,100538.41
2019-03-01T04:13:54.246Z,100548.91
2019-03-01T04:16:22.529Z,100544.59
2019-03-01T04:18:50.845Z,100546.67
2019-03-01T04:21:19.149Z,100550.36
2019-03-01T04:23:47.459Z,100553.47
2019-03-01T04:26:15.756Z,100555.36
2019-03-01T04:28:44.056Z,100554.11
2019-03-01T04:31:12.338Z,100551.82
2019-03-01T04:33:41.040Z,100548.88
2019-03-01T04:36:09.331Z,100554.34
2019-03-01T04:38:37.635Z,100550.86
2019-03-01T04:41:05.905Z,100561.12
2019-03-01T04:47:05.293Z,100550.57
2019-03-01T04:49:33.596Z,100544.63
2019-03-01T04:52:05.061Z,100549.88
2019-03-01T04:54:33.362Z,100551.31
2019-03-01T04:57:01.639Z,100551.30
2019-03-01T04:59:29.932Z,100559.23
2019-03-01T05:01:58.234Z,100552.81
2019-03-01T05:04:26.549Z,100546.61
2019-03-01T05:06:54.850Z,100545.00
2019-03-01T05:09:23.138Z,100548.48
2019-03-01T05:11:51.426Z,100550.20
2019-03-01T05:14:19.706Z,100546.52
2019-03-01T05:16:48.020Z,100555.89
2019-03-01T05:19:16.571Z,100556.44
2019-03-01T05:21:44.933Z,100556.63
2019-03-01T05:24:13.221Z,100560.82
2019-03-01T05:26:41.526Z,100559.70
2019-03-01T05:29:09.808Z,100561.12
2019-03-01T05:31:38.095Z,100567.29
2019-03-01T05:34:06.383Z,100565.24
2019-03-01T05:36:34.678Z,100568.63
2019-03-01T05:39:03.233Z,100573.05
2019-03-01T05:41:31.576Z,100573.19
2019-03-01T05:43:59.850Z,100582.30
2019-03-01T05:46:28.166Z,100579.57
2019-03-01T05:48:56.459Z,100578.77
2019-03-01T05:51:24.749Z,100586.23
2019-03-01T05:53:53.039Z,100588.46
2019-03-01T05:56:21.321Z,100581.88
2019-03-01T05:58:52.648Z,100591.30
2019-03-01T06:01:27.134Z,100589.72
2019-03-01T06:04:04.178Z,100601.32
2019-03-01T06:06:41.113Z,100590.20
2019-03-01T06:09:21.022Z,100592.06
2019-03-01T06:12:11.572Z,100593.97
2019-03-01T06:14:43.050Z,100588.51
2019-03-01T06:17:30.813Z,100588.11
2019-03-01T06:20:02.295Z,100586.13
2019-03-01T06:22:42.498Z,100597.03
2019-03-01T06:25:16.587Z,100594.20
2019-03-01T06:28:02.934Z,100585.63
2019-03-01T06:30:52.168Z,100589.83
2019-03-01T06:33:35.436Z,100580.42
2019-03-01T06:36:12.624Z,100572.84
2019-03-01T06:38:48.391Z,100583.20
2019-03-01T06:41:35.843Z,100587.92
2019-03-01T06:44:22.113Z,100592.56
2019-03-01T06:47:02.702Z,100604.69
2019-03-01T06:49:48.444Z,100607.98
2019-03-01T06:52:18.352Z,100613.47
2019-03-01T06:54:46.631Z,100617.07
2019-03-01T06:57:14.920Z,100608.58
2019-03-01T06:59:43.226Z,100612.91
2019-03-01T07:02:13.146Z,100616.83
2019-03-01T07:04:41.432Z,100622.56
2019-03-01T07:07:10.539Z,100623.93
2019-03-01T07:09:38.820Z,100625.34
2019-03-01T07:12:07.114Z,100617.63
2019-03-01T07:14:35.380Z,100616.49
2019-03-01T07:17:03.654Z,100617.39
2019-03-01T07:19:31.946Z,100632.18
2019-03-01T07:22:00.231Z,100630.92
2019-03-01T07:24:28.508Z,100635.70
2019-03-01T07:26:56.813Z,100634.52
2019-03-01T07:29:25.098Z,100641.53
2019-03-01T07:31:54.164Z,100642.42
2019-03-01T07:34:22.534Z,100644.52
2019-03-01T07:36:50.810Z,100636.78
2019-03-01T07:39:19.112Z,100645.55
2019-03-01T07:41:49.461Z,100644.25
2019-03-01T07:44:17.400Z,100643.87
2019-03-01T07:46:52.697Z,100649.90
2019-03-01T07:49:15.692Z,100658.88
2019-03-01T07:51:44.010Z,100662.62
2019-03-01T07:54:13.228Z,100662.62
2019-03-01T07:56:42.403Z,100661.19
2019-03-01T07:59:10.673Z,100660.70
2019-03-01T08:01:38.952Z,100662.02
2019-03-01T08:04:07.234Z,100673.46
2019-03-01T08:06:35.497Z,100672.69
2019-03-01T08:09:05.415Z,100671.80
2019-03-01T08:11:33.695Z,100672.72
2019-03-01T08:14:01.964Z,100675.45
2019-03-01T08:16:30.233Z,100674.17
2019-03-01T08:18:58.499Z,100672.88
2019-03-01T08:21:26.770Z,100679.08
2019-03-01T08:23:55.073Z,100674.53
2019-03-01T08:26:23.356Z,100678.73
2019-03-01T08:28:54.734Z,100684.97
2019-03-01T08:31:22.275Z,100687.89
2019-03-01T08:33:50.624Z,100693.33
2019-03-01T08:36:18.877Z,100683.83
2019-03-01T08:38:47.164Z,100687.34
2019-03-01T08:41:15.429Z,100683.75
2019-03-01T08:43:44.813Z,100678.86
2019-03-01T08:46:14.232Z,100712.25
2019-03-01T08:48:42.527Z,100680.03
2019-03-01T08:51:10.873Z,100692.32
2019-03-01T08:53:39.153Z,100701.11
2019-03-01T08:56:10.930Z,100699.63
2019-03-01T08:58:37.578Z,100704.25
2019-03-01T09:01:10.595Z,100708.65
2019-03-01T09:03:47.554Z,100715.41
2019-03-01T09:06:15.853Z,100715.99
2019-03-01T09:08:46.274Z,100718.44
2019-03-01T09:11:14.109Z,100719.58
2019-03-01T09:13:42.370Z,100720.95
2019-03-01T09:16:10.648Z,100721.16
2019-03-01T09:18:38.920Z,100725.59
2019-03-01T09:21:12.222Z,100723.97
2019-03-01T09:23:37.212Z,100726.23
2019-03-01T09:26:05.480Z,100722.52
2019-03-01T09:28:38.557Z,100722.81
2019-03-01T09:31:03.760Z,100714.42
2019-03-01T09:33:32.071Z,100726.02
2019-03-01T09:36:02.083Z,100724.20
2019-03-01T09:38:30.367Z,100716.38
2019-03-01T09:41:01.195Z,100726.87
2019-03-01T09:43:28.690Z,100725.53
2019-03-01T09:45:56.948Z,100726.52
2019-03-01T09:48:25.236Z,100736.75
2019-03-01T09:50:53.521Z,100735.67
2019-03-01T09:53:21.798Z,100741.66
2019-03-01T09:55:50.066Z,100738.87
2019-03-01T09:58:18.360Z,100741.67
2019-03-01T10:00:56.400Z,100744.35
2019-03-01T10:03:22.742Z,100751.19
2019-03-01T10:05:51.036Z,100745.31
2019-03-01T10:08:19.340Z,100743.18
2019-03-01T10:10:47.608Z,100749.77
2019-03-01T10:13:15.881Z,100752.02
2019-03-01T10:15:44.160Z,100766.06
2019-03-01T10:18:12.456Z,100751.09
2019-03-01T10:20:41.082Z,100752.29
2019-03-01T10:23:09.365Z,100760.78
2019-03-01T10:25:37.651Z,100750.37
2019-03-01T10:28:05.932Z,100751.63
2019-03-01T10:30:34.217Z,100745.79
2019-03-01T10:33:02.489Z,100751.50
2019-03-01T10:35:30.793Z,100743.41
2019-03-01T10:37:59.064Z,100742.16
2019-03-01T10:40:28.058Z,100749.55
2019-03-01T10:42:56.335Z,100751.03
2019-03-01T10:45:27.526Z,100748.83
2019-03-01T10:47:55.795Z,100743.73
2019-03-01T10:50:24.274Z,100749.25
2019-03-01T10:52:52.612Z,100759.34
2019-03-01T10:55:21.336Z,100765.33
2019-03-01T10:57:49.843Z,100760.75
2019-03-01T11:00:19.686Z,100764.81
2019-03-01T11:02:47.973Z,100783.23
2019-03-01T11:05:16.241Z,100779.69
2019-03-01T11:07:44.530Z,100781.05
2019-03-01T11:10:18.401Z,100794.61
2019-03-01T11:12:46.685Z,100793.48
2019-03-01T11:15:15.015Z,100778.34
2019-03-01T11:17:43.309Z,100788.27
2019-03-01T11:20:14.418Z,100788.55
2019-03-01T11:22:42.772Z,100785.02
2019-03-01T11:25:13.085Z,100777.20
2019-03-01T11:27:41.361Z,100769.37
2019-03-01T11:30:12.636Z,100778.22
2019-03-01T11:32:40.891Z,100789.58
2019-03-01T11:35:09.245Z,100777.28
2019-03-01T11:37:37.513Z,100787.47
2019-03-01T11:40:16.682Z,100789.87
2019-03-01T11:42:45.048Z,100794.18
2019-03-01T11:45:13.414Z,100802.31
2019-03-01T11:47:41.677Z,100809.86
2019-03-01T11:50:16.269Z,100810.13
2019-03-01T11:52:44.602Z,100812.85
2019-03-01T11:55:12.859Z,100820.77
2019-03-01T11:57:41.155Z,100820.57
2019-03-01T12:00:18.669Z,100817.58
2019-03-01T12:02:47.493Z,100819.09
2019-03-01T12:05:16.106Z,100813.75
2019-03-01T12:07:44.390Z,100801.34
2019-03-01T12:10:15.840Z,100806.94
2019-03-01T12:12:44.121Z,100796.59
2019-03-01T12:15:13.139Z,100793.97
2019-03-01T12:17:41.433Z,100793.02
2019-03-01T12:20:15.322Z,100792.45
2019-03-01T12:22:43.629Z,100782.36
2019-03-01T12:25:12.170Z,100780.39
2019-03-01T12:27:40.450Z,100778.76
2019-03-01T12:30:11.841Z,100789.59
2019-03-01T12:32:40.114Z,100778.08
2019-03-01T12:35:09.644Z,100771.12
2019-03-01T12:37:37.913Z,100773.80
2019-03-01T12:40:11.819Z,100781.05
2019-03-01T12:42:40.101Z,100779.59
2019-03-01T12:45:11.230Z,100779.59
2019-03-01T12:47:39.510Z,100787.68
2019-03-01T12:50:10.121Z,100794.45
2019-03-01T12:52:38.420Z,100791.22
2019-03-01T12:55:15.562Z,100796.68
2019-03-01T12:57:43.831Z,100791.26
2019-03-01T13:00:14.838Z,100797.84
2019-03-01T13:02:43.104Z,100790.30
2019-03-01T13:05:12.835Z,100792.95
2019-03-01T13:07:41.144Z,100789.56
2019-03-01T13:10:12.842Z,100796.09
2019-03-01T13:12:41.112Z,100792.53
2019-03-01T13:15:13.802Z,100792.53
2019-03-01T13:17:41.082Z,100786.82
2019-03-01T13:20:14.357Z,100789.86
2019-03-01T13:22:42.648Z,100784.79
2019-03-01T13:25:11.408Z,100801.43
2019-03-01T13:27:39.673Z,100798.21
2019-03-01T13:30:16.434Z,100803.52
2019-03-01T13:32:44.757Z,100803.27
2019-03-01T13:35:15.277Z,100806.58
2019-03-01T13:37:43.549Z,100800.59
2019-03-01T13:40:20.942Z,100794.09
2019-03-01T13:42:50.769Z,100814.62
2019-03-01T13:45:21.193Z,100809.05
2019-03-01T13:47:49.495Z,100802.25
2019-03-01T13:50:19.089Z,100807.95
2019-03-01T13:52:47.346Z,100824.00
2019-03-01T13:55:18.594Z,100819.28
2019-03-01T13:57:49.785Z,100824.27
2019-03-01T14:00:18.098Z,100827.53
2019-03-01T14:02:48.050Z,100839.97
2019-03-01T14:05:17.373Z,100838.20
2019-03-01T14:07:45.953Z,100844.70
2019-03-01T14:10:24.570Z,100830.97
2019-03-01T14:12:53.206Z,100839.67
2019-03-01T14:15:21.477Z,100837.88
2019-03-01T14:17:49.763Z,100837.51
2019-03-01T14:20:21.750Z,100843.66
2019-03-01T14:22:50.084Z,100840.25
2019-03-01T14:25:18.407Z,100854.69
2019-03-01T14:27:46.717Z,100848.14
2019-03-01T14:30:25.375Z,100849.50
2019-03-01T14:32:56.973Z,100855.94
2019-03-01T14:35:26.011Z,100848.05
2019-03-01T14:37:55.237Z,100853.25
2019-03-01T14:40:23.410Z,100848.77
2019-03-01T14:42:51.814Z,100846.91
2019-03-01T14:45:25.337Z,100846.39
2019-03-01T14:47:53.443Z,100851.55
2019-03-01T14:50:25.971Z,100856.89
2019-03-01T14:52:58.345Z,100859.66
2019-03-01T14:55:33.475Z,100858.08
2019-03-01T14:58:05.173Z,100854.98
2019-03-01T15:00:39.609Z,100857.23
2019-03-01T15:03:33.342Z,100862.09
2019-03-01T15:06:01.762Z,100866.12
2019-03-01T15:08:30.110Z,100857.17
2019-03-01T15:11:00.202Z,100866.23
2019-03-01T15:13:31.355Z,100867.98
2019-03-01T15:16:00.992Z,100864.54
2019-03-01T15:18:28.998Z,100862.23
2019-03-01T15:21:02.369Z,100866.67
2019-03-01T15:23:28.612Z,100857.19
2019-03-01T15:25:56.900Z,100858.09
2019-03-01T15:28:25.175Z,100857.48
2019-03-01T15:30:53.449Z,100871.19
2019-03-01T15:33:21.730Z,100872.94
2019-03-01T15:35:50.003Z,100878.38
2019-03-01T15:38:18.279Z,100886.06
2019-03-01T15:40:46.567Z,100883.63
2019-03-01T15:43:14.845Z,100890.94
2019-03-01T15:45:43.115Z,100892.88
2019-03-01T15:48:11.409Z,100894.44
2019-03-01T15:50:39.834Z,100893.03
2019-03-01T15:53:08.098Z,100888.69
2019-03-01T15:55:36.386Z,100881.13
2019-03-01T15:58:04.648Z,100890.04
2019-03-01T16:00:32.923Z,100890.44
2019-03-01T16:03:01.195Z,100887.79
2019-03-01T16:05:29.471Z,100891.78
2019-03-01T16:07:57.746Z,100901.72
2019-03-01T16:10:26.023Z,100898.88
2019-03-01T16:12:54.302Z,100904.66
2019-03-01T16:15:22.559Z,100901.12
2019-03-01T16:17:50.837Z,100914.11
2019-03-01T16:20:20.135Z,100911.46
2019-03-01T16:22:51.001Z,100917.00
2019-03-01T16:25:20.587Z,100928.64
2019-03-01T16:27:50.623Z,100928.98
2019-03-01T16:30:22.235Z,100931.62
2019-03-01T16:32:50.821Z,100930.14
2019-03-01T16:35:20.772Z,100932.12
2019-03-01T16:37:53.591Z,100936.66
2019-03-01T16:40:21.864Z,100944.49
2019-03-01T16:42:54.309Z,100944.30
2019-03-01T16:45:21.009Z,100941.60
2019-03-01T16:47:50.175Z,100941.34
2019-03-01T16:50:19.588Z,100947.09
2019-03-01T16:52:47.919Z,100944.86
2019-03-01T16:55:20.772Z,100936.90
2019-03-01T16:57:52.308Z,100947.81
2019-03-01T17:00:23.207Z,100945.05
2019-03-01T17:02:56.587Z,100952.08
2019-03-01T17:05:24.934Z,100947.70
2019-03-01T17:07:53.186Z,100944.51
2019-03-01T17:10:21.458Z,100954.89
2019-03-01T17:12:52.108Z,100957.72
2019-03-01T17:15:21.257Z,100958.92
2019-03-01T17:17:49.534Z,100964.26
2019-03-01T17:20:17.798Z,100967.30
2019-03-01T17:22:46.073Z,100975.58
2019-03-01T17:25:16.178Z,100986.67
2019-03-01T17:27:45.300Z,100984.22
2019-03-01T17:30:21.368Z,100990.70
2019-03-01T17:32:49.647Z,100989.72
2019-03-01T17:35:17.920Z,100993.30
2019-03-01T17:37:46.198Z,101000.58
2019-03-01T17:40:15.915Z,101004.58
2019-03-01T17:42:44.184Z,101000.38
2019-03-01T17:45:20.964Z,101006.75
2019-03-01T17:47:48.477Z,101005.89
2019-03-01T17:50:16.768Z,101007.45
2019-03-01T17:52:45.082Z,101011.02
2019-03-01T17:55:15.662Z,101012.31
2019-03-01T17:57:43.936Z,101010.73
2019-03-01T18:00:15.870Z,101013.94
2019-03-01T18:02:44.151Z,101018.72
2019-03-01T18:05:12.903Z,101016.63
2019-03-01T18:07:41.259Z,101022.57
2019-03-01T18:10:12.694Z,101025.12
2019-03-01T18:12:40.968Z,101023.25
2019-03-01T18:15:14.001Z,101026.50
2019-03-01T18:17:42.273Z,101024.72
2019-03-01T18:20:11.969Z,101030.25
2019-03-01T18:22:40.243Z,101035.44
2019-03-01T18:25:18.660Z,101033.23
2019-03-01T18:27:49.775Z,101037.81
2019-03-01T18:30:24.791Z,101042.75
2019-03-01T18:32:53.076Z,101043.16
2019-03-01T18:35:21.360Z,101035.35
2019-03-01T18:37:51.438Z,101040.31
2019-03-01T18:40:19.603Z,101043.83
2019-03-01T18:42:47.878Z,101041.79
2019-03-01T18:45:25.759Z,101049.73
2019-03-01T18:47:54.030Z,101057.55
2019-03-01T18:50:27.629Z,101059.25
2019-03-01T18:52:55.140Z,101055.77
2019-03-01T18:55:23.401Z,101050.80
2019-03-01T18:57:51.673Z,101048.83
2019-03-01T19:00:25.303Z,101053.16
2019-03-01T19:02:53.582Z,101050.53
2019-03-01T19:05:21.854Z,101060.23
2019-03-01T19:07:50.118Z,101059.45
2019-03-01T19:10:20.447Z,101054.48
2019-03-01T19:12:49.576Z,101062.94
2019-03-01T19:15:17.929Z,101065.56
2019-03-01T19:17:46.647Z,101063.10
2019-03-01T19:20:26.156Z,101069.03
2019-03-01T19:22:54.416Z,101069.00
2019-03-01T19:25:25.266Z,101076.73
2019-03-01T19:27:52.670Z,101076.16
2019-03-01T19:30:24.988Z,101073.42
2019-03-01T19:32:53.422Z,101077.10
2019-03-01T19:35:28.487Z,101074.75
2019-03-01T19:37:51.707Z,101071.53
2019-03-01T19:40:22.381Z,101075.58
2019-03-01T19:42:50.659Z,101067.77
2019-03-01T19:45:19.364Z,101070.17
2019-03-01T19:47:47.742Z,101074.94
2019-03-01T19:50:21.719Z,101074.98
2019-03-01T19:52:50.781Z,101081.24
2019-03-01T19:55:19.028Z,101077.47
2019-03-01T19:57:47.381Z,101077.03
2019-03-01T20:00:23.663Z,101076.21
2019-03-01T20:02:51.963Z,101071.99
2019-03-01T20:05:23.035Z,101074.55
2019-03-01T20:07:51.792Z,101081.36
2019-03-01T20:10:21.312Z,101075.14
2019-03-01T20:12:49.579Z,101079.98
2019-03-01T20:15:20.581Z,101074.58
2019-03-01T20:17:48.927Z,101082.39
2019-03-01T20:20:20.362Z,101081.02
2019-03-01T20:22:50.592Z,101076.99
2019-03-01T20:25:19.161Z,101071.92
2019-03-01T20:27:47.567Z,101078.84
2019-03-01T20:30:18.998Z,101074.99
2019-03-01T20:32:50.894Z,101083.09
2019-03-01T20:35:17.420Z,101078.73
2019-03-01T20:37:45.762Z,101076.84
2019-03-01T20:40:15.188Z,101081.36
2019-03-01T20:42:43.991Z,101084.91
2019-03-01T20:45:31.252Z,101081.77
2019-03-01T20:47:59.757Z,101080.44
2019-03-01T20:50:28.034Z,101091.42
2019-03-01T20:52:56.365Z,101093.31
2019-03-01T20:55:24.649Z,101088.39
2019-03-01T20:57:52.930Z,101086.50
2019-03-01T21:00:26.220Z,101092.39
2019-03-01T21:02:53.207Z,101093.61
2019-03-01T21:05:24.954Z,101093.13
2019-03-01T21:07:53.775Z,101089.13
2019-03-01T21:10:28.706Z,101094.28
2019-03-01T21:12:56.981Z,101090.28
2019-03-01T21:15:25.251Z,101096.42
2019-03-01T21:17:56.935Z,101095.47
2019-03-01T21:20:24.919Z,101101.23
2019-03-01T21:22:53.208Z,101102.76
2019-03-01T21:25:22.551Z,101109.05
2019-03-01T21:27:50.813Z,101107.98
2019-03-01T21:30:30.057Z,101106.94
2019-03-01T21:32:58.336Z,101101.72
2019-03-01T21:35:26.604Z,101104.27
2019-03-01T21:37:55.129Z,101110.78
2019-03-01T21:40:23.388Z,101112.89
2019-03-01T21:42:52.870Z,101108.42
2019-03-01T21:45:23.210Z,101108.49
2019-03-01T21:47:51.480Z,101104.27
2019-03-01T21:50:19.818Z,101108.30
2019-03-01T21:52:48.076Z,101107.00
2019-03-01T21:55:20.243Z,101107.82
2019-03-01T21:57:48.560Z,101105.34
2019-03-01T22:00:31.361Z,101107.78
2019-03-01T22:02:58.486Z,101107.86
2019-03-01T22:05:26.823Z,101105.38
2019-03-01T22:07:55.098Z,101107.92
2019-03-01T22:10:23.364Z,101105.20
2019-03-01T22:12:51.784Z,101108.49
2019-03-01T22:15:25.575Z,101106.59
2019-03-01T22:17:55.441Z,101105.94
2019-03-01T22:20:24.164Z,101105.27
2019-03-01T22:22:52.442Z,101110.00
2019-03-01T22:25:20.766Z,101110.48
2019-03-01T22:27:49.019Z,101114.84
2019-03-01T22:30:31.358Z,101117.22
2019-03-01T22:32:59.642Z,101116.45
2019-03-01T22:35:27.943Z,101114.33
2019-03-01T22:37:56.234Z,101115.70
2019-03-01T22:40:28.000Z,101117.47
2019-03-01T22:42:54.523Z,101117.47
2019-03-01T22:45:22.810Z,101115.70
2019-03-01T22:47:51.083Z,101114.03
2019-03-01T22:50:20.206Z,101120.98
2019-03-01T22:52:48.495Z,101119.76
2019-03-01T22:55:17.541Z,101119.76
2019-03-01T22:57:45.839Z,101118.94
2019-03-01T23:00:27.544Z,101122.25
2019-03-01T23:02:55.828Z,101120.55
2019-03-01T23:05:24.106Z,101114.92
2019-03-01T23:07:52.379Z,101114.44
2019-03-01T23:10:21.529Z,101119.55
2019-03-01T23:12:50.529Z,101114.89
2019-03-01T23:15:18.809Z,101116.92
2019-03-01T23:17:47.091Z,101109.95
2019-03-01T23:20:15.391Z,101113.80
2019-03-01T23:22:46.017Z,101113.50
2019-03-01T23:25:13.731Z,101109.54
2019-03-01T23:27:42.025Z,101109.02
2019-03-01T23:30:10.304Z,101112.84
2019-03-01T23:32:38.604Z,101110.42
2019-03-01T23:35:06.872Z,101109.40
2019-03-01T23:37:35.603Z,101106.56
2019-03-01T23:40:06.258Z,101107.28
2019-03-01T23:42:34.549Z,101104.08
2019-03-01T23:45:02.848Z,101106.40
2019-03-01T23:47:31.157Z,101105.00
2019-03-01T23:50:00.490Z,101105.27
2019-03-01T23:52:28.927Z,101111.34
2019-03-01T23:54:57.250Z,101103.70
2019-03-01T23:57:25.534Z,101101.66
2019-03-01T23:59:53.841Z,101099.23
